Time;durP1;ratioP1;P1;durP2;ratioP2;P2;SDS_P1;SDS_P2;PMS_P1;PMS_P2;Temp;Humidity;BMP_temperature;BMP_pressure;BME280_temperature;BME280_humidity;BME280_pressure;Samples;Min_cycle;Max_cycle;Signal;HPM_P1;HPM_P2
2022/05/08 00:01:14;;;;;;;5.35;4.20;;;;;;;15.10;82.49;101930.63;5001513;28;20237;-52
2022/05/08 00:03:41;;;;;;;5.65;3.58;;;;;;;15.11;82.50;101927.97;5000984;28;20273;-53
2022/05/08 00:06:11;;;;;;;4.13;3.72;;;;;;;15.04;82.19;101935.00;5008569;28;20241;-52
2022/05/08 00:08:40;;;;;;;3.65;3.35;;;;;;;14.99;82.18;101930.63;4997316;28;20232;-56
2022/05/08 00:11:08;;;;;;;4.05;3.70;;;;;;;15.00;82.55;101929.75;4995797;28;20649;-53
2022/05/08 00:13:35;;;;;;;4.20;3.80;;;;;;;15.00;82.34;101927.09;4998160;28;20233;-52
2022/05/08 00:16:02;;;;;;;3.40;3.05;;;;;;;15.01;82.21;101928.84;5005438;28;20745;-51
2022/05/08 00:18:28;;;;;;;3.50;3.20;;;;;;;15.04;82.19;101929.72;5002430;28;20236;-53
2022/05/08 00:20:55;;;;;;;4.93;3.08;;;;;;;15.03;82.13;101920.03;4997399;28;20273;-52
2022/05/08 00:23:21;;;;;;;3.45;3.15;;;;;;;15.05;82.12;101927.97;4995945;28;20233;-53
2022/05/08 00:25:47;;;;;;;3.65;3.35;;;;;;;15.05;82.00;101930.59;5004057;28;20498;-52
2022/05/08 00:28:15;;;;;;;3.80;3.50;;;;;;;15.01;82.51;101918.28;5006742;28;20723;-53
2022/05/08 00:30:42;;;;;;;3.40;3.10;;;;;;;15.01;82.28;101926.19;5003349;28;20339;-53
2022/05/08 00:33:08;;;;;;;3.90;3.60;;;;;;;14.99;82.39;101920.06;5005336;28;20780;-52
2022/05/08 00:35:34;;;;;;;4.38;3.15;;;;;;;15.02;82.08;101925.31;5004935;28;20241;-59
2022/05/08 00:38:01;;;;;;;3.15;2.95;;;;;;;15.00;81.45;101924.44;5002965;28;20268;-52
2022/05/08 00:40:27;;;;;;;3.10;2.80;;;;;;;14.95;80.77;101929.75;4999469;28;20261;-52
2022/05/08 00:42:54;;;;;;;2.70;2.50;;;;;;;14.92;80.91;101929.75;4999527;28;20284;-52
2022/05/08 00:45:22;;;;;;;3.28;2.97;;;;;;;15.03;78.99;101937.69;4999353;28;20700;-52
2022/05/08 00:47:48;;;;;;;3.42;2.60;;;;;;;14.94;76.59;101924.44;4997119;28;20699;-52
2022/05/08 00:50:14;;;;;;;1.88;1.77;;;;;;;14.94;74.26;101927.09;4998465;28;20229;-52
2022/05/08 00:52:41;;;;;;;1.85;1.75;;;;;;;14.89;72.76;101934.16;5002976;28;20241;-52
2022/05/08 00:55:08;;;;;;;2.45;1.95;;;;;;;14.88;72.33;101930.63;5000696;28;20234;-52
2022/05/08 00:57:35;;;;;;;2.42;1.95;;;;;;;14.75;71.38;101932.38;5005187;28;20237;-54
2022/05/08 01:00:04;;;;;;;2.25;1.90;;;;;;;14.82;70.18;101929.75;5000916;28;20241;-53
2022/05/08 01:02:32;;;;;;;2.47;1.88;;;;;;;14.82;69.70;101932.38;5000538;28;20311;-52
2022/05/08 01:04:58;;;;;;;1.85;1.75;;;;;;;14.87;69.76;101931.50;5002937;28;20237;-52
2022/05/08 01:07:26;;;;;;;2.38;1.65;;;;;;;14.74;70.42;101935.00;5003440;28;20646;-51
2022/05/08 01:09:54;;;;;;;3.65;1.75;;;;;;;14.67;71.26;101931.50;4998609;28;20656;-52
2022/05/08 01:12:21;;;;;;;1.63;1.52;;;;;;;14.68;72.00;101927.09;5005033;28;20244;-52
2022/05/08 01:14:47;;;;;;;3.03;2.17;;;;;;;14.69;72.67;101927.06;5002663;28;20687;-53
2022/05/08 01:17:15;;;;;;;3.10;1.77;;;;;;;14.65;72.48;101930.59;4997904;28;20261;-52
2022/05/08 01:19:42;;;;;;;1.73;1.63;;;;;;;14.51;74.03;101927.94;5004514;28;20272;-53
2022/05/08 01:22:10;;;;;;;2.22;1.90;;;;;;;14.55;74.86;101929.69;5007357;28;20663;-52
2022/05/08 01:24:37;;;;;;;1.92;1.83;;;;;;;14.51;75.63;101929.69;5005237;28;20275;-53
2022/05/08 01:27:03;;;;;;;2.78;1.80;;;;;;;14.28;78.17;101933.09;5001178;28;20237;-52
2022/05/08 01:29:30;;;;;;;2.53;1.77;;;;;;;14.37;79.41;101934.03;5000861;28;20707;-52
2022/05/08 01:31:58;;;;;;;1.48;1.38;;;;;;;14.27;80.24;101928.72;5002708;28;20248;-53
2022/05/08 01:34:24;;;;;;;3.03;2.30;;;;;;;14.18;81.59;101933.06;4999843;28;20234;-52
2022/05/08 01:36:51;;;;;;;2.45;2.10;;;;;;;14.07;84.69;101925.13;4998019;28;20300;-52
2022/05/08 01:39:18;;;;;;;3.45;2.70;;;;;;;13.80;90.52;101937.34;5004348;28;20311;-53
2022/05/08 01:41:45;;;;;;;3.47;2.60;;;;;;;13.47;94.73;101938.00;5001821;28;20714;-51
2022/05/08 01:44:12;;;;;;;3.75;2.47;;;;;;;13.30;97.92;101930.00;5004922;28;20243;-51
2022/05/08 01:46:38;;;;;;;2.53;2.35;;;;;;;13.15;100.00;101929.84;5003253;28;20732;-53
2022/05/08 01:49:03;;;;;;;3.55;3.25;;;;;;;13.10;100.00;101926.31;5000768;28;20702;-53
2022/05/08 01:51:30;;;;;;;3.47;2.92;;;;;;;12.97;100.00;101924.44;4990305;28;20312;-51
2022/05/08 01:53:58;;;;;;;4.82;3.05;;;;;;;12.95;100.00;101934.06;4987960;28;20245;-52
2022/05/08 01:56:27;;;;;;;3.75;3.40;;;;;;;12.96;100.00;101933.22;4997983;28;20599;-55
2022/05/08 01:58:53;;;;;;;3.38;2.50;;;;;;;12.92;100.00;101932.31;4997083;28;20242;-54
2022/05/08 02:01:19;;;;;;;3.53;2.90;;;;;;;12.94;100.00;101930.56;4993188;28;20234;-53
2022/05/08 02:03:46;;;;;;;3.17;2.55;;;;;;;12.95;100.00;101931.44;4997098;28;20598;-52
2022/05/08 02:06:17;;;;;;;3.10;2.67;;;;;;;12.99;100.00;101928.84;5002810;28;20233;-55
2022/05/08 02:08:43;;;;;;;2.53;2.33;;;;;;;12.94;100.00;101934.94;4997125;28;20249;-53
2022/05/08 02:11:10;;;;;;;2.78;2.55;;;;;;;13.02;100.00;101934.16;5005825;28;20240;-53
2022/05/08 02:13:37;;;;;;;4.00;3.03;;;;;;;13.09;100.00;101938.63;4997018;28;20245;-53
2022/05/08 02:16:06;;;;;;;3.78;2.95;;;;;;;13.19;100.00;101936.91;5004824;28;20260;-52
2022/05/08 02:18:33;;;;;;;2.83;2.60;;;;;;;13.16;100.00;101939.50;5000349;28;25827;-52
2022/05/08 02:20:59;;;;;;;2.70;2.50;;;;;;;13.11;100.00;101938.59;5007000;28;20269;-53
2022/05/08 02:23:26;;;;;;;5.00;3.83;;;;;;;13.08;100.00;101939.47;5004507;28;20258;-54
2022/05/08 02:25:52;;;;;;;3.08;2.78;;;;;;;13.16;100.00;101942.16;4999747;28;20237;-52
2022/05/08 02:28:18;;;;;;;2.55;2.17;;;;;;;13.18;100.00;101945.69;5000519;28;20230;-53
2022/05/08 02:30:47;;;;;;;3.08;2.55;;;;;;;13.13;100.00;101943.03;5001573;28;20296;-53
2022/05/08 02:33:17;;;;;;;3.20;2.90;;;;;;;13.18;100.00;101934.28;5004027;28;20298;-52
2022/05/08 02:35:43;;;;;;;3.55;2.30;;;;;;;13.17;100.00;101943.94;5002967;28;20271;-51
2022/05/08 02:38:11;;;;;;;2.88;2.63;;;;;;;13.13;100.00;101942.16;4998942;28;20313;-52
2022/05/08 02:40:37;;;;;;;2.70;2.50;;;;;;;13.10;100.00;101943.00;4998688;28;20241;-53
2022/05/08 02:43:04;;;;;;;3.38;2.63;;;;;;;13.13;100.00;101947.44;5000809;28;20233;-53
2022/05/08 02:45:30;;;;;;;2.80;2.60;;;;;;;13.17;100.00;101948.34;5005467;28;20237;-52
2022/05/08 02:47:58;;;;;;;2.95;2.70;;;;;;;13.23;100.00;101944.00;5005590;28;20233;-53
2022/05/08 02:50:25;;;;;;;2.58;2.38;;;;;;;13.29;100.00;101951.09;5004854;28;20826;-51
2022/05/08 02:52:52;;;;;;;4.45;2.83;;;;;;;13.33;100.00;101953.75;5002190;28;20224;-53
2022/05/08 03:00:47;;;;;;;3.00;2.63;;;;;;;13.34;100.00;101960.81;5000807;28;20268;-53
2022/05/08 03:03:15;;;;;;;2.42;2.25;;;;;;;13.29;100.00;101951.97;4997812;28;20241;-52
2022/05/08 03:05:43;;;;;;;3.30;3.00;;;;;;;13.30;100.00;101958.13;5003136;28;20299;-52
2022/05/08 03:08:11;;;;;;;4.57;3.08;;;;;;;13.26;100.00;101959.84;4993390;28;20317;-51
2022/05/08 03:13:17;;;;;;;4.20;3.63;;;;;;;13.21;100.00;101969.47;4989186;28;20227;-54
2022/05/08 03:15:44;;;;;;;3.30;3.03;;;;;;;13.18;100.00;101973.81;4995672;28;20287;-52
2022/05/08 03:18:10;;;;;;;3.10;2.80;;;;;;;13.17;100.00;101972.06;4990294;28;20714;-52
2022/05/08 03:20:40;;;;;;;3.20;3.00;;;;;;;13.13;100.00;101965.88;4997651;28;20256;-53
2022/05/08 03:23:06;;;;;;;4.25;3.47;;;;;;;13.13;100.00;101966.78;5003625;28;20328;-55
2022/05/08 03:25:33;;;;;;;3.25;3.05;;;;;;;13.10;100.00;101965.84;4989400;28;20587;-53
2022/05/08 03:27:59;;;;;;;3.97;3.67;;;;;;;13.09;100.00;101971.97;4997011;28;20284;-52
2022/05/08 03:30:26;;;;;;;3.88;3.58;;;;;;;13.10;100.00;101979.91;5002431;28;20631;-53
2022/05/08 03:32:54;;;;;;;3.95;3.63;;;;;;;13.14;100.00;101983.47;5005985;28;20629;-52
2022/05/08 03:35:20;;;;;;;3.70;3.40;;;;;;;13.15;100.00;101982.59;5008352;28;20722;-52
2022/05/08 03:37:48;;;;;;;3.15;2.85;;;;;;;13.14;100.00;101981.72;4999914;28;20324;-53
2022/05/08 03:40:15;;;;;;;3.88;3.45;;;;;;;13.14;100.00;101986.09;4998325;28;20238;-51
2022/05/08 03:42:42;;;;;;;4.35;2.85;;;;;;;13.12;100.00;101982.56;5008718;28;20319;-54
2022/05/08 03:45:10;;;;;;;3.72;3.42;;;;;;;13.09;100.00;101982.53;4993300;28;20256;-52
2022/05/08 03:47:36;;;;;;;4.60;3.10;;;;;;;13.08;100.00;101989.56;4989746;28;20236;-53
2022/05/08 03:50:05;;;;;;;4.78;3.10;;;;;;;13.06;100.00;101987.81;5000214;28;20252;-53
2022/05/08 03:52:32;;;;;;;5.18;3.60;;;;;;;13.08;100.00;101991.31;5004391;28;20224;-52
2022/05/08 03:55:00;;;;;;;3.45;2.95;;;;;;;13.08;100.00;101993.94;5002630;28;20233;-52
2022/05/08 03:57:27;;;;;;;4.88;3.53;;;;;;;13.05;99.44;102002.72;5005886;28;20237;-52
2022/05/08 03:59:54;;;;;;;3.85;2.70;;;;;;;13.00;97.53;101988.63;4999976;28;20254;-53
2022/05/08 04:02:20;;;;;;;5.03;3.15;;;;;;;13.02;96.52;101991.25;5001945;28;20432;-52
2022/05/08 04:04:46;;;;;;;8.60;2.92;;;;;;;13.00;94.70;101993.00;5000013;28;20246;-52
2022/05/08 04:07:13;;;;;;;4.05;2.47;;;;;;;12.93;93.52;102001.72;5000288;28;20233;-52
2022/05/08 04:09:40;;;;;;;6.07;3.38;;;;;;;12.89;93.25;102001.69;5005703;28;20263;-53
2022/05/08 04:12:08;;;;;;;5.88;2.65;;;;;;;12.87;93.88;102006.06;5007775;28;20245;-53
2022/05/08 04:14:34;;;;;;;4.78;2.80;;;;;;;12.87;92.81;102013.09;5000418;28;20303;-52
2022/05/08 04:17:01;;;;;;;6.32;2.53;;;;;;;12.84;93.23;102008.66;4997182;28;20229;-52
2022/05/08 04:19:28;;;;;;;8.35;2.92;;;;;;;12.85;92.68;102009.56;4999259;28;20249;-56
2022/05/08 04:24:16;;;;;;;5.78;3.88;;;;;;;12.86;90.85;102012.22;5006047;28;20309;-52
2022/05/08 04:24:40;;;;;;;3.35;2.65;;;;;;;12.79;89.26;102018.28;5003742;28;20587;-53
2022/05/08 04:27:08;;;;;;;5.38;3.00;;;;;;;12.76;90.02;102018.25;4999679;28;20233;-52
2022/05/08 04:29:34;;;;;;;4.13;2.60;;;;;;;12.71;90.28;102016.44;4999542;28;20237;-53
2022/05/08 04:32:01;;;;;;;2.97;2.67;;;;;;;12.68;89.89;102012.03;4997748;28;20718;-52
2022/05/08 04:34:27;;;;;;;7.72;3.10;;;;;;;12.72;90.36;102021.72;5001672;28;20230;-52
2022/05/08 04:36:54;;;;;;;7.65;3.17;;;;;;;12.70;89.71;102018.19;5004564;28;20751;-52
2022/05/08 04:39:21;;;;;;;6.97;2.97;;;;;;;12.69;88.62;102019.06;4993428;28;20349;-52
2022/05/08 04:41:47;;;;;;;4.68;2.83;;;;;;;12.66;89.43;102006.72;5003162;28;20674;-53
2022/05/08 04:44:15;;;;;;;5.32;3.05;;;;;;;12.66;89.58;102013.75;5006158;28;20229;-52
2022/05/08 04:46:42;;;;;;;7.03;2.72;;;;;;;12.62;90.59;102022.47;5006197;28;20241;-52
2022/05/08 04:49:08;;;;;;;5.05;2.78;;;;;;;12.58;90.58;102025.97;5007564;28;20233;-51
2022/05/08 04:51:35;;;;;;;4.55;2.38;;;;;;;12.56;90.36;102032.94;4996831;28;20234;-52
2022/05/08 04:54:01;;;;;;;7.55;2.67;;;;;;;12.55;90.59;102033.81;5003754;28;20268;-53
2022/05/08 04:56:27;;;;;;;5.53;2.63;;;;;;;12.56;89.94;102039.09;4997666;28;20770;-52
2022/05/08 04:58:54;;;;;;;3.45;2.72;;;;;;;12.57;89.71;102043.53;5002064;28;20260;-52
2022/05/08 05:01:21;;;;;;;6.30;2.65;;;;;;;12.57;89.54;102046.16;4995719;28;20782;-53
2022/05/08 05:03:48;;;;;;;5.88;3.72;;;;;;;12.69;87.31;102050.66;4999709;28;20233;-52
2022/05/08 05:06:14;;;;;;;7.63;2.95;;;;;;;12.66;86.81;102054.16;5005456;28;20225;-52
2022/05/08 05:08:41;;;;;;;5.55;2.67;;;;;;;12.64;85.37;102053.25;4994246;28;20314;-52
2022/05/08 05:11:08;;;;;;;9.73;2.72;;;;;;;12.61;85.49;102052.34;5006902;28;20656;-52
2022/05/08 05:13:34;;;;;;;6.22;2.78;;;;;;;12.59;83.76;102056.69;4998149;28;20265;-52
2022/05/08 05:16:01;;;;;;;7.47;2.90;;;;;;;12.52;83.82;102063.63;5002085;28;20752;-52
2022/05/08 05:18:29;;;;;;;4.30;2.60;;;;;;;12.49;85.08;102054.81;4992083;28;20237;-54
2022/05/08 05:20:55;;;;;;;10.85;3.95;;;;;;;12.51;86.03;102061.00;4999551;28;20265;-54
2022/05/08 05:23:21;;;;;;;5.85;2.38;;;;;;;12.54;86.13;102055.78;5005168;28;20247;-52
2022/05/08 05:25:49;;;;;;;6.57;3.65;;;;;;;12.57;85.76;102055.81;4998646;28;20750;-52
2022/05/08 05:28:15;;;;;;;7.63;2.58;;;;;;;12.64;84.81;102062.94;5002533;28;20791;-54
2022/05/08 05:30:42;;;;;;;8.23;2.67;;;;;;;12.74;83.54;102067.44;5004597;28;20237;-52
2022/05/08 05:33:15;;;;;;;8.15;2.90;;;;;;;12.70;83.42;102070.88;5004823;28;20280;-54
2022/05/08 05:35:43;;;;;;;6.15;2.78;;;;;;;12.65;82.33;102075.22;4986747;28;20277;-51
2022/05/08 05:38:09;;;;;;;7.10;2.88;;;;;;;12.55;82.71;102079.50;4997003;28;20236;-52
2022/05/08 05:40:36;;;;;;;4.40;2.40;;;;;;;12.55;83.19;102083.88;4996181;28;20242;-54
2022/05/08 05:43:02;;;;;;;6.90;3.13;;;;;;;12.52;83.64;102086.47;5000301;28;20291;-52
2022/05/08 05:45:28;;;;;;;7.90;3.35;;;;;;;12.58;83.26;102076.00;5001156;28;20240;-53
2022/05/08 05:47:54;;;;;;;7.80;2.92;;;;;;;12.58;82.55;102078.66;5006742;28;20241;-53
2022/05/08 05:50:21;;;;;;;4.30;2.22;;;;;;;12.54;81.63;102082.13;5002463;28;20268;-52
2022/05/08 05:52:49;;;;;;;7.95;2.92;;;;;;;12.54;82.38;102088.25;5003448;28;20233;-51
2022/05/08 05:55:16;;;;;;;8.77;2.58;;;;;;;12.53;82.57;102090.88;5000042;28;20242;-56
2022/05/08 05:57:43;;;;;;;6.95;3.72;;;;;;;12.57;82.07;102076.88;4999577;28;20908;-52
2022/05/08 06:00:11;;;;;;;6.88;2.83;;;;;;;12.60;81.26;102083.09;4997205;28;20266;-53
2022/05/08 06:02:39;;;;;;;9.25;3.88;;;;;;;12.58;81.17;102078.66;4996671;28;20540;-52
2022/05/08 06:05:06;;;;;;;5.88;2.95;;;;;;;12.62;81.06;102083.97;4998947;28;20261;-52
2022/05/08 06:07:33;;;;;;;4.60;2.45;;;;;;;12.66;81.75;102083.13;5002261;28;20359;-52
2022/05/08 06:10:00;;;;;;;7.38;2.70;;;;;;;12.71;80.71;102085.84;5003954;28;20950;-52
2022/05/08 06:12:27;;;;;;;9.90;2.75;;;;;;;12.70;80.67;102081.41;5001310;28;20237;-52
2022/05/08 06:14:54;;;;;;;8.60;2.67;;;;;;;12.78;81.06;102086.81;4999651;28;20245;-52
2022/05/08 06:17:20;;;;;;;4.03;2.72;;;;;;;12.91;81.12;102088.69;4996773;28;20226;-51
2022/05/08 06:19:46;;;;;;;8.68;2.67;;;;;;;12.98;78.91;102093.16;4999376;28;20241;-54
2022/05/08 06:22:13;;;;;;;10.40;2.80;;;;;;;13.16;78.83;102095.09;4999644;28;20265;-52
2022/05/08 06:24:39;;;;;;;7.38;2.95;;;;;;;13.14;77.93;102097.72;5003774;28;20699;-53
2022/05/08 06:27:09;;;;;;;6.97;3.00;;;;;;;13.19;78.34;102094.25;4995727;28;20233;-52
2022/05/08 06:29:35;;;;;;;8.27;3.40;;;;;;;13.27;78.65;102093.50;4995390;28;20250;-51
2022/05/08 06:32:03;;;;;;;9.68;3.85;;;;;;;13.30;77.81;102092.63;4995711;28;20731;-53
2022/05/08 06:34:29;;;;;;;11.38;3.13;;;;;;;13.36;78.72;102095.34;4996990;28;20233;-52
2022/05/08 06:36:56;;;;;;;10.15;3.58;;;;;;;13.47;79.08;102101.59;4995543;28;20244;-52
2022/05/08 06:39:22;;;;;;;8.32;3.53;;;;;;;13.54;78.40;102098.13;4989206;28;20939;-53
2022/05/08 06:41:49;;;;;;;6.07;3.35;;;;;;;13.59;78.59;102100.84;5003801;28;20269;-53
2022/05/08 06:44:18;;;;;;;9.52;3.08;;;;;;;13.63;78.70;102102.63;4999775;28;20245;-52
2022/05/08 06:46:47;;;;;;;7.82;3.10;;;;;;;13.85;77.72;102104.56;5003930;28;20718;-51
2022/05/08 06:49:13;;;;;;;7.43;3.20;;;;;;;13.83;77.66;102101.03;4996585;28;20289;-52
2022/05/08 06:51:41;;;;;;;4.40;2.92;;;;;;;13.80;78.04;102106.28;4995689;28;20280;-51
2022/05/08 06:54:07;;;;;;;10.93;4.38;;;;;;;13.78;77.95;102102.75;5000500;28;20288;-52
2022/05/08 06:56:35;;;;;;;5.95;3.15;;;;;;;13.80;78.53;102103.66;4997970;28;20300;-53
2022/05/08 07:01:50;;;;;;;6.43;3.03;;;;;;;14.03;78.27;102108.19;4996097;28;20244;-53
2022/05/08 07:04:17;;;;;;;8.57;4.22;;;;;;;14.02;78.71;102096.75;5003790;28;20224;-54
2022/05/08 07:06:43;;;;;;;9.15;3.85;;;;;;;14.24;78.20;102102.16;5002867;28;20252;-52
2022/05/08 07:09:10;;;;;;;11.88;4.22;;;;;;;14.12;77.54;102112.66;4992127;28;20720;-54
2022/05/08 07:11:37;;;;;;;7.47;3.38;;;;;;;14.17;77.55;102106.53;5004681;28;21317;-53
2022/05/08 07:14:05;;;;;;;10.38;3.85;;;;;;;14.35;75.79;102112.78;5002180;28;20233;-54
2022/05/08 07:16:34;;;;;;;6.88;3.53;;;;;;;14.31;73.98;102115.41;5003133;28;20307;-55
2022/05/08 07:19:01;;;;;;;11.10;3.65;;;;;;;14.28;73.36;102123.31;4997861;28;20221;-52
2022/05/08 07:21:28;;;;;;;6.55;3.33;;;;;;;14.39;73.90;102122.50;5002410;28;20793;-52
2022/05/08 07:23:55;;;;;;;5.50;2.90;;;;;;;14.40;73.72;102119.00;5005716;28;20225;-54
2022/05/08 07:26:23;;;;;;;8.65;3.45;;;;;;;14.51;73.21;102119.97;4999466;28;20237;-52
2022/05/08 07:28:55;;;;;;;8.18;3.05;;;;;;;14.48;73.69;102117.28;5001017;28;20235;-53
2022/05/08 07:31:24;;;;;;;8.63;3.53;;;;;;;14.56;74.87;102119.09;5002014;28;20723;-52
2022/05/08 07:36:12;;;;;;;6.47;2.85;;;;;;;14.59;73.79;102118.25;4999725;28;20241;-52
2022/05/08 07:36:38;;;;;;;5.85;2.75;;;;;;;14.57;73.42;102122.66;4997833;28;20228;-53
2022/05/08 07:39:05;;;;;;;8.98;2.70;;;;;;;14.63;72.61;102120.00;4997480;28;20248;-52
2022/05/08 07:41:31;;;;;;;4.25;2.25;;;;;;;14.70;70.13;102118.28;4995706;28;20238;-51
2022/05/08 07:43:57;;;;;;;8.02;3.10;;;;;;;14.83;68.81;102120.09;4998722;28;20256;-52
2022/05/08 07:46:25;;;;;;;5.45;2.60;;;;;;;14.92;68.87;102120.16;5002691;28;20237;-52
2022/05/08 07:48:51;;;;;;;8.35;3.47;;;;;;;14.98;68.41;102116.63;5003144;28;20959;-51
2022/05/08 07:51:18;;;;;;;7.35;3.25;;;;;;;15.27;64.19;102127.31;4986100;28;20273;-53
2022/05/08 07:53:45;;;;;;;10.15;2.92;;;;;;;15.24;64.03;102116.69;5003077;28;20298;-52
2022/05/08 07:56:12;;;;;;;8.15;3.03;;;;;;;15.33;64.58;102131.69;5003303;28;20237;-51
2022/05/08 07:58:38;;;;;;;6.82;3.65;;;;;;;15.63;62.88;102134.38;5004295;28;20237;-53
2022/05/08 08:01:05;;;;;;;12.70;4.20;;;;;;;15.77;62.76;102130.91;4994497;28;20316;-53
2022/05/08 08:03:32;;;;;;;9.95;3.47;;;;;;;15.68;61.20;102127.34;4997314;28;20668;-51
2022/05/08 08:05:59;;;;;;;13.02;4.13;;;;;;;15.69;62.55;102130.91;4994855;28;20225;-52
2022/05/08 08:08:26;;;;;;;11.05;3.85;;;;;;;15.88;62.57;102131.78;5006043;28;20865;-53
2022/05/08 08:10:58;;;;;;;8.32;2.50;;;;;;;15.92;60.83;102133.53;5002493;28;20238;-55
2022/05/08 08:13:26;;;;;;;6.45;2.88;;;;;;;15.99;60.52;102140.59;4996654;28;20237;-52
2022/05/08 08:15:53;;;;;;;7.60;3.05;;;;;;;16.08;60.13;102145.91;5015522;28;20296;-52
2022/05/08 08:18:19;;;;;;;5.35;2.53;;;;;;;16.08;60.95;102145.00;5004769;28;20229;-53
2022/05/08 08:20:48;;;;;;;6.03;2.40;;;;;;;16.08;60.73;102145.00;5006352;28;20323;-53
2022/05/08 08:23:15;;;;;;;7.28;3.42;;;;;;;15.90;61.92;102146.78;5003447;28;20253;-52
2022/05/08 08:25:44;;;;;;;9.95;3.50;;;;;;;15.74;61.83;102145.91;5007048;28;20272;-52
2022/05/08 08:28:13;;;;;;;7.07;3.35;;;;;;;16.05;62.62;102145.00;4999651;28;20715;-52
2022/05/08 08:30:39;;;;;;;6.38;3.38;;;;;;;16.26;60.73;102149.41;4997742;28;20241;-53
2022/05/08 08:33:05;;;;;;;7.18;3.20;;;;;;;16.39;61.78;102153.78;5002407;28;20229;-53
2022/05/08 08:35:32;;;;;;;7.45;3.35;;;;;;;16.57;62.33;102163.47;5005357;28;20253;-53
2022/05/08 08:37:58;;;;;;;5.00;3.05;;;;;;;16.86;60.43;102158.09;5001243;28;20325;-52
2022/05/08 08:40:25;;;;;;;8.88;2.95;;;;;;;16.99;60.68;102151.84;5008862;28;20245;-55
2022/05/08 08:42:51;;;;;;;7.35;3.58;;;;;;;17.12;60.03;102153.53;5007903;28;20233;-53
2022/05/08 08:48:12;;;;;;;3.85;2.47;;;;;;;17.48;58.70;102154.22;5005521;28;20236;-54
2022/05/08 08:50:38;;;;;;;9.23;3.00;;;;;;;17.47;58.37;102157.75;4999119;28;20758;-52
2022/05/08 08:53:06;;;;;;;8.05;3.38;;;;;;;17.48;58.33;102158.63;5004608;28;20230;-51
2022/05/08 08:55:33;;;;;;;5.60;2.60;;;;;;;17.79;57.02;102154.00;5004376;28;20232;-52
2022/05/08 08:58:00;;;;;;;7.20;2.83;;;;;;;17.84;57.02;102153.06;5008808;28;20268;-54
2022/05/08 09:00:28;;;;;;;6.00;3.10;;;;;;;17.85;56.78;102167.22;5013433;28;20234;-53
2022/05/08 09:02:55;;;;;;;11.85;3.00;;;;;;;17.99;56.48;102154.72;5010515;28;20244;-52
2022/05/08 09:05:24;;;;;;;6.90;3.20;;;;;;;17.96;55.92;102156.50;5013027;28;20698;-53
2022/05/08 09:07:52;;;;;;;8.13;3.15;;;;;;;17.87;55.32;102158.38;5001166;28;20237;-53
2022/05/08 09:10:20;;;;;;;6.68;2.17;;;;;;;18.12;54.67;102160.81;5003663;28;20719;-54
2022/05/08 09:13:03;;;;;;;7.30;2.80;;;;;;;18.23;53.21;102161.56;5004140;28;20233;-53
2022/05/08 09:15:32;;;;;;;7.47;3.20;;;;;;;18.41;51.66;102159.63;4999909;28;20699;-52
2022/05/08 09:17:59;;;;;;;3.65;1.90;;;;;;;18.65;50.61;102158.47;4994537;28;20236;-53
2022/05/08 09:20:29;;;;;;;4.18;2.25;;;;;;;18.63;50.64;102157.59;5000328;28;20237;-53
2022/05/08 09:23:08;;;;;;;4.55;2.10;;;;;;;18.66;48.55;102163.75;4998717;28;20321;-53
2022/05/08 09:25:46;;;;;;;5.45;2.28;;;;;;;18.80;47.63;102161.84;5009011;28;20272;-52
2022/05/08 09:28:13;;;;;;;4.68;2.38;;;;;;;18.80;48.56;102166.28;5006724;28;20609;-54
2022/05/08 09:30:58;;;;;;;6.15;2.95;;;;;;;18.93;47.02;102167.91;5004168;28;20237;-52
2022/05/08 09:33:26;;;;;;;6.03;2.72;;;;;;;18.94;46.82;102159.03;4981558;28;20232;-52
2022/05/08 09:35:53;;;;;;;5.28;2.33;;;;;;;18.98;46.67;102154.53;5002190;28;20236;-52
2022/05/08 09:38:19;;;;;;;5.68;2.15;;;;;;;19.14;44.88;102157.88;5001906;28;20676;-53
2022/05/08 09:40:46;;;;;;;5.80;2.13;;;;;;;19.15;44.79;102156.97;5005493;28;20397;-52
2022/05/08 09:43:27;;;;;;;4.05;2.08;;;;;;;19.07;45.39;102155.31;4991499;28;20233;-52
2022/05/08 09:45:58;;;;;;;4.82;2.33;;;;;;;19.32;45.70;102160.28;4996668;28;20225;-53
2022/05/08 09:48:26;;;;;;;7.18;3.13;;;;;;;18.91;46.29;102155.50;5003114;28;20343;-53
2022/05/08 09:50:55;;;;;;;4.60;2.40;;;;;;;19.01;46.36;102154.50;5007017;28;20239;-53
2022/05/08 09:53:21;;;;;;;5.38;2.28;;;;;;;19.39;44.50;102158.41;5006201;28;20611;-53
2022/05/08 09:55:48;;;;;;;7.50;3.25;;;;;;;19.64;42.58;102158.94;5019158;28;20260;-54
2022/05/08 09:58:14;;;;;;;5.50;2.60;;;;;;;19.91;40.69;102157.63;5011724;28;20238;-54
2022/05/08 10:00:41;;;;;;;5.80;2.28;;;;;;;19.82;41.28;102168.44;5012823;28;20237;-53
2022/05/08 10:03:09;;;;;;;9.48;2.85;;;;;;;19.76;40.06;102156.97;5016271;28;20234;-52
2022/05/08 10:05:36;;;;;;;8.63;2.47;;;;;;;19.73;40.85;102164.13;5008319;28;20237;-53
2022/05/08 10:08:03;;;;;;;6.85;2.22;;;;;;;19.84;41.10;102162.16;4999476;28;20234;-53
2022/05/08 10:16:51;;;;;;;3.70;2.22;;;;;;;20.21;38.18;102162.38;4935609;28;20292;-52
2022/05/08 10:19:55;;;;;;;5.22;2.35;;;;;;;20.38;36.29;102170.09;4992321;28;20262;-52
2022/05/08 10:22:24;;;;;;;5.72;1.88;;;;;;;20.40;36.64;102168.28;4998037;28;20348;-53
2022/05/08 10:24:56;;;;;;;7.75;2.08;;;;;;;20.47;36.31;102169.91;5001548;28;20563;-51
2022/05/08 10:27:27;;;;;;;5.28;2.35;;;;;;;20.42;37.43;102166.44;4998757;28;20256;-52
2022/05/08 10:30:22;;;;;;;7.97;3.20;;;;;;;20.32;38.86;102172.84;4996542;28;20233;-53
2022/05/08 10:32:52;;;;;;;3.55;1.60;;;;;;;20.54;35.51;102164.50;4953094;28;20233;-54
2022/05/08 10:35:21;;;;;;;5.95;2.15;;;;;;;20.71;33.96;102162.38;4998833;28;20312;-54
2022/05/08 10:37:50;;;;;;;7.25;2.42;;;;;;;20.70;34.18;102163.28;4997370;28;20284;-53
2022/05/08 10:40:33;;;;;;;5.05;2.00;;;;;;;20.77;34.14;102156.91;4994167;28;20263;-53
2022/05/08 10:43:01;;;;;;;3.95;1.75;;;;;;;20.91;33.51;102152.13;5000478;28;20812;-53
2022/05/08 10:45:41;;;;;;;6.35;2.55;;;;;;;21.06;33.38;102163.41;4993332;28;20233;-53
2022/05/08 10:48:15;;;;;;;6.55;2.65;;;;;;;21.11;32.57;102162.41;4998237;28;20232;-52
2022/05/08 10:50:44;;;;;;;5.93;2.15;;;;;;;21.14;32.48;102158.78;4995871;28;20795;-54
2022/05/08 10:53:23;;;;;;;3.33;1.83;;;;;;;21.23;32.40;102161.22;5005157;28;20225;-52
2022/05/08 10:55:50;;;;;;;3.83;1.95;;;;;;;21.01;32.80;102150.16;5000691;28;20236;-53
2022/05/08 10:58:16;;;;;;;5.15;2.00;;;;;;;21.20;32.52;102161.34;5000181;28;20238;-53
2022/05/08 11:00:43;;;;;;;5.75;2.90;;;;;;;21.35;32.20;102160.13;4999621;28;20300;-52
2022/05/08 11:03:09;;;;;;;6.50;2.45;;;;;;;21.55;32.60;102155.19;5001661;28;20269;-53
2022/05/08 11:05:38;;;;;;;7.22;2.08;;;;;;;21.63;31.37;102150.53;5001877;28;20245;-52
2022/05/08 11:08:05;;;;;;;3.22;1.60;;;;;;;21.78;31.70;102151.94;5002578;28;20240;-53
2022/05/08 11:10:34;;;;;;;6.07;2.22;;;;;;;21.83;32.70;102142.03;5000873;28;20245;-52
2022/05/08 11:13:02;;;;;;;4.15;2.80;;;;;;;21.98;32.94;102147.91;5001448;28;20287;-53
2022/05/08 11:15:29;;;;;;;5.72;3.30;;;;;;;22.00;32.28;102146.03;4996205;28;20229;-53
2022/05/08 11:18:03;;;;;;;12.88;4.20;;;;;;;22.11;31.91;102152.88;5003079;28;20300;-53
2022/05/08 11:20:30;;;;;;;6.65;3.45;;;;;;;21.96;30.80;102141.69;4995672;28;20258;-53
2022/05/08 11:22:57;;;;;;;10.43;6.85;;;;;;;21.95;30.88;102150.66;4998848;28;20234;-52
2022/05/08 11:25:23;;;;;;;6.90;2.80;;;;;;;21.87;29.51;102146.38;4995754;28;20310;-52
2022/05/08 11:27:55;;;;;;;11.98;9.07;;;;;;;21.98;29.03;102153.25;4995446;28;20320;-53
2022/05/08 11:30:30;;;;;;;6.38;3.50;;;;;;;22.08;29.46;102152.09;4998115;28;20237;-53
2022/05/08 11:38:31;;;;;;;12.10;6.25;;;;;;;22.59;26.81;102151.59;4993183;28;20235;-54
2022/05/08 11:40:58;;;;;;;4.45;2.70;;;;;;;22.60;25.52;102158.69;4993320;28;20279;-52
2022/05/08 11:43:42;;;;;;;4.40;2.20;;;;;;;22.86;25.32;102144.56;4994175;28;20786;-52
2022/05/08 11:46:09;;;;;;;6.30;4.70;;;;;;;23.23;25.50;102151.50;4992859;28;20225;-53
2022/05/08 11:48:40;;;;;;;5.47;2.25;;;;;;;23.36;25.81;102152.00;5000000;28;20272;-53
2022/05/08 11:51:07;;;;;;;5.40;2.95;;;;;;;23.72;24.91;102152.63;4999739;28;20253;-53
2022/05/08 11:53:43;;;;;;;6.97;2.45;;;;;;;23.80;25.11;102150.59;5003635;28;20234;-52